createdAt,value
2019-05-23T00:01:41.402Z,9.95
2019-05-23T00:04:26.602Z,10.47
2019-05-23T00:06:58.692Z,9.93
2019-05-23T00:09:30.170Z,10.77
2019-05-23T00:12:04.563Z,10.50
2019-05-23T00:14:39.952Z,10.67
2019-05-23T00:17:15.027Z,10.47
2019-05-23T00:19:44.658Z,10.77
2019-05-23T00:22:14.803Z,11.03
2019-05-23T00:24:45.964Z,11.20
2019-05-23T00:27:16.330Z,10.97
2019-05-23T00:29:48.876Z,10.90
2019-05-23T00:32:22.570Z,11.13
2019-05-23T00:34:53.922Z,11.57
2019-05-23T00:37:24.929Z,11.30
2019-05-23T00:39:55.323Z,11.87
2019-05-23T00:42:26.158Z,11.27
2019-05-23T00:44:57.648Z,11.47
2019-05-23T00:47:28.698Z,11.93
2019-05-23T00:49:58.363Z,12.53
2019-05-23T00:52:29.089Z,11.67
2019-05-23T00:55:01.129Z,12.10
2019-05-23T00:57:31.461Z,11.60
2019-05-23T01:00:01.935Z,11.73
2019-05-23T01:02:33.814Z,11.67
2019-05-23T01:05:05.194Z,12.20
2019-05-23T01:07:35.289Z,12.27
2019-05-23T01:10:09.974Z,11.33
2019-05-23T01:12:40.484Z,11.97
2019-05-23T01:15:11.149Z,12.35
2019-05-23T01:17:42.330Z,11.80
2019-05-23T01:20:14.810Z,11.47
2019-05-23T01:22:45.885Z,12.13
2019-05-23T01:25:18.350Z,12.43
2019-05-23T01:27:47.982Z,12.53
2019-05-23T01:30:23.465Z,12.10
2019-05-23T01:32:55.039Z,11.43
2019-05-23T01:35:26.052Z,11.97
2019-05-23T01:37:56.914Z,11.63
2019-05-23T01:40:27.758Z,12.13
2019-05-23T01:42:58.392Z,13.20
2019-05-23T01:45:28.902Z,12.03
2019-05-23T01:47:59.247Z,13.63
2019-05-23T01:50:29.166Z,13.63
2019-05-23T01:52:59.393Z,13.90
2019-05-23T01:55:29.799Z,14.00
2019-05-23T01:57:59.615Z,13.73
2019-05-23T02:00:31.469Z,14.20
2019-05-23T02:03:01.122Z,14.53
2019-05-23T02:05:31.494Z,14.60
2019-05-23T02:08:02.531Z,15.87
2019-05-23T02:10:32.654Z,14.20
2019-05-23T02:13:02.229Z,15.03
2019-05-23T02:15:33.604Z,14.87
2019-05-23T02:18:04.612Z,14.17
2019-05-23T02:20:35.192Z,13.73
2019-05-23T02:23:06.200Z,14.67
2019-05-23T02:25:36.686Z,14.07
2019-05-23T02:28:08.359Z,14.67
2019-05-23T02:30:39.420Z,13.77
2019-05-23T02:33:10.216Z,14.13
2019-05-23T02:35:40.724Z,13.03
2019-05-23T02:38:11.121Z,13.13
2019-05-23T02:40:43.924Z,14.00
2019-05-23T02:43:19.769Z,13.83
2019-05-23T02:45:55.258Z,13.20
2019-05-23T02:48:29.056Z,13.77
2019-05-23T02:51:03.512Z,13.90
2019-05-23T02:53:37.480Z,14.23
2019-05-23T02:56:11.954Z,13.63
2019-05-23T02:59:28.406Z,13.30
2019-05-23T03:02:36.368Z,13.20
2019-05-23T03:05:10.468Z,13.67
2019-05-23T03:07:40.804Z,15.07
2019-05-23T03:10:13.657Z,14.73
2019-05-23T03:12:46.319Z,14.57
2019-05-23T03:15:16.997Z,14.30
2019-05-23T03:17:54.865Z,14.17
2019-05-23T03:20:28.346Z,14.37
2019-05-23T03:23:07.181Z,14.07
2019-05-23T03:25:41.493Z,13.00
2019-05-23T03:28:14.672Z,14.47
2019-05-23T03:30:49.005Z,13.97
2019-05-23T03:33:20.761Z,15.33
2019-05-23T03:35:51.954Z,14.53
2019-05-23T03:38:21.701Z,15.00
2019-05-23T03:40:51.320Z,14.80
2019-05-23T03:43:21.310Z,14.50
2019-05-23T03:45:52.687Z,15.37
2019-05-23T03:48:24.244Z,14.50
2019-05-23T03:50:55.898Z,14.80
2019-05-23T03:53:27.568Z,13.43
2019-05-23T03:55:59.417Z,15.10
2019-05-23T03:58:30.008Z,15.80
2019-05-23T04:01:01.417Z,14.57
2019-05-23T04:03:31.614Z,15.00
2019-05-23T04:06:02.051Z,14.67
2019-05-23T04:08:32.395Z,15.33
2019-05-23T04:11:02.155Z,14.97
2019-05-23T04:13:31.874Z,15.07
2019-05-23T04:16:01.989Z,13.77
2019-05-23T04:18:33.136Z,15.00
2019-05-23T04:21:02.709Z,14.93
2019-05-23T04:23:32.600Z,14.83
2019-05-23T04:26:02.320Z,14.40
2019-05-23T04:28:32.983Z,14.90
2019-05-23T04:31:02.995Z,14.20
2019-05-23T04:33:33.082Z,15.20
2019-05-23T04:36:03.339Z,14.33
2019-05-23T04:38:36.236Z,14.97
2019-05-23T04:41:04.931Z,14.67
2019-05-23T04:43:34.483Z,14.97
2019-05-23T04:46:04.865Z,15.27
2019-05-23T04:48:34.428Z,14.40
2019-05-23T04:51:05.778Z,14.50
2019-05-23T04:53:36.128Z,14.30
2019-05-23T04:56:06.678Z,14.30
2019-05-23T04:58:36.878Z,13.97
2019-05-23T05:01:07.238Z,13.80
2019-05-23T05:03:36.867Z,14.90
2019-05-23T05:06:07.641Z,14.10
2019-05-23T05:08:37.837Z,13.77
2019-05-23T05:11:08.547Z,13.80
2019-05-23T05:13:39.317Z,13.77
2019-05-23T05:16:09.738Z,14.57
2019-05-23T05:18:39.843Z,13.70
2019-05-23T05:21:10.183Z,14.20
2019-05-23T05:23:39.803Z,14.53
2019-05-23T05:26:14.096Z,14.80
2019-05-23T05:28:43.742Z,18.40
2019-05-23T05:31:13.359Z,16.20
2019-05-23T05:33:43.224Z,15.70
2019-05-23T05:36:12.945Z,19.60
2019-05-23T05:38:43.475Z,19.17
2019-05-23T05:41:13.643Z,20.40
2019-05-23T05:43:43.541Z,17.97
2019-05-23T05:46:13.952Z,15.70
2019-05-23T05:48:43.616Z,16.83
2019-05-23T05:51:13.455Z,16.03
2019-05-23T05:53:43.281Z,16.33
2019-05-23T05:56:12.930Z,18.30
2019-05-23T05:58:43.581Z,16.53
2019-05-23T06:01:30.902Z,16.27
2019-05-23T06:03:47.574Z,17.27
2019-05-23T06:06:25.209Z,16.63
2019-05-23T06:08:56.483Z,15.93
2019-05-23T06:11:26.677Z,17.27
2019-05-23T06:13:56.272Z,17.07
2019-05-23T06:16:26.866Z,16.60
2019-05-23T06:18:57.237Z,16.53
2019-05-23T06:21:28.922Z,17.40
2019-05-23T06:23:59.704Z,16.63
2019-05-23T06:26:29.550Z,17.13
2019-05-23T06:28:59.115Z,17.60
2019-05-23T06:31:29.874Z,17.27
2019-05-23T06:33:59.712Z,16.70
2019-05-23T06:36:29.831Z,17.20
2019-05-23T06:38:59.812Z,17.40
2019-05-23T06:41:29.920Z,17.90
2019-05-23T06:44:00.236Z,17.47
2019-05-23T06:46:30.320Z,17.30
2019-05-23T06:49:00.216Z,17.43
2019-05-23T06:51:29.847Z,17.37
2019-05-23T06:53:59.771Z,17.03
2019-05-23T06:56:29.609Z,16.47
2019-05-23T06:58:59.169Z,16.73
2019-05-23T07:01:28.883Z,16.93
2019-05-23T07:03:58.941Z,16.43
2019-05-23T07:06:28.876Z,15.57
2019-05-23T07:08:59.305Z,16.90
2019-05-23T07:11:29.214Z,16.30
2019-05-23T07:13:58.906Z,17.17
2019-05-23T07:16:28.447Z,16.63
2019-05-23T07:18:58.833Z,16.40
2019-05-23T07:21:29.381Z,16.27
2019-05-23T07:23:58.969Z,15.83
2019-05-23T07:26:29.993Z,16.70
2019-05-23T07:29:00.222Z,14.97
2019-05-23T07:31:31.405Z,15.50
2019-05-23T07:34:02.643Z,16.47
2019-05-23T07:36:33.421Z,15.97
2019-05-23T07:39:03.202Z,15.00
2019-05-23T07:41:32.831Z,14.87
2019-05-23T07:44:03.181Z,16.03
2019-05-23T07:46:33.358Z,14.10
2019-05-23T07:49:03.422Z,14.00
2019-05-23T07:51:32.939Z,12.63
2019-05-23T07:54:02.356Z,12.57
2019-05-23T07:56:39.235Z,12.43
2019-05-23T07:59:09.465Z,11.83
2019-05-23T08:01:45.098Z,10.83
2019-05-23T08:04:22.033Z,9.97
2019-05-23T08:06:48.931Z,8.73
2019-05-23T08:09:19.488Z,10.40
2019-05-23T08:11:49.857Z,8.50
2019-05-23T08:14:19.481Z,8.83
2019-05-23T08:16:49.857Z,6.97
2019-05-23T08:19:20.439Z,7.40
2019-05-23T08:21:50.008Z,7.33
2019-05-23T08:24:21.146Z,6.73
2019-05-23T08:26:50.792Z,6.90
2019-05-23T08:29:26.179Z,5.53
2019-05-23T08:31:53.866Z,6.40
2019-05-23T08:34:40.096Z,6.27
2019-05-23T08:36:55.499Z,6.83
2019-05-23T08:39:26.872Z,6.37
2019-05-23T08:41:56.735Z,5.73
2019-05-23T08:44:26.293Z,7.10
2019-05-23T08:46:56.713Z,7.37
2019-05-23T08:49:27.724Z,7.60
2019-05-23T08:51:57.519Z,8.23
2019-05-23T08:54:27.257Z,8.27
2019-05-23T08:56:57.463Z,8.00
2019-05-23T08:59:28.435Z,8.17
2019-05-23T09:01:58.467Z,7.37
2019-05-23T09:04:28.012Z,8.40
2019-05-23T09:06:58.670Z,7.57
2019-05-23T09:09:30.426Z,8.13
2019-05-23T09:12:01.298Z,7.47
2019-05-23T09:14:30.929Z,11.40
2019-05-23T09:17:00.890Z,6.93
2019-05-23T09:19:30.516Z,6.60
2019-05-23T09:22:01.038Z,6.10
2019-05-23T09:24:30.597Z,6.77
2019-05-23T09:27:00.309Z,6.10
2019-05-23T09:29:30.139Z,6.10
2019-05-23T09:31:59.694Z,5.83
2019-05-23T09:34:29.870Z,7.87
2019-05-23T09:37:00.492Z,5.70
2019-05-23T09:39:30.393Z,4.90
2019-05-23T09:42:00.158Z,5.17
2019-05-23T09:44:29.776Z,5.47
2019-05-23T09:46:59.373Z,5.27
2019-05-23T09:49:29.096Z,5.08
2019-05-23T09:52:01.389Z,5.15
2019-05-23T09:54:30.714Z,4.83
2019-05-23T09:57:00.293Z,4.47
2019-05-23T09:59:30.065Z,4.33
2019-05-23T10:02:01.371Z,7.03
2019-05-23T10:04:31.123Z,5.60
2019-05-23T10:07:01.612Z,5.40
2019-05-23T10:09:31.240Z,5.60
2019-05-23T10:12:01.179Z,6.17
2019-05-23T10:14:34.920Z,6.15
2019-05-23T10:17:04.747Z,6.17
2019-05-23T10:19:35.431Z,6.40
2019-05-23T10:22:06.686Z,5.37
2019-05-23T10:24:36.530Z,5.53
2019-05-23T10:27:07.895Z,5.58
2019-05-23T10:29:37.572Z,5.53
2019-05-23T10:32:08.849Z,5.65
2019-05-23T10:34:38.532Z,5.22
2019-05-23T10:37:09.730Z,6.03
2019-05-23T10:39:40.809Z,6.40
2019-05-23T10:42:10.662Z,6.55
2019-05-23T10:44:40.226Z,5.62
2019-05-23T10:47:10.064Z,7.87
2019-05-23T10:49:39.828Z,5.25
2019-05-23T10:52:10.203Z,5.72
2019-05-23T10:54:40.298Z,4.35
2019-05-23T10:57:10.228Z,5.22
2019-05-23T10:59:40.114Z,5.40
2019-05-23T11:02:10.551Z,5.72
2019-05-23T11:04:40.774Z,5.05
2019-05-23T11:07:11.579Z,6.30
2019-05-23T11:09:41.457Z,4.90
2019-05-23T11:12:12.229Z,4.62
2019-05-23T11:14:41.783Z,5.20
2019-05-23T11:17:11.425Z,4.77
2019-05-23T11:19:41.976Z,4.40
2019-05-23T11:22:11.635Z,6.05
2019-05-23T11:24:41.182Z,4.97
2019-05-23T11:27:10.808Z,5.10
2019-05-23T11:29:40.734Z,4.55
2019-05-23T11:32:10.964Z,4.97
2019-05-23T11:34:40.591Z,4.95
2019-05-23T11:37:11.529Z,4.78
2019-05-23T11:39:49.297Z,4.55
2019-05-23T11:42:12.519Z,4.37
2019-05-23T11:44:42.310Z,5.12
2019-05-23T11:47:12.815Z,4.83
2019-05-23T11:49:44.068Z,5.17
2019-05-23T11:52:14.901Z,5.03
2019-05-23T11:54:44.791Z,4.80
2019-05-23T11:57:15.601Z,3.90
2019-05-23T11:59:53.279Z,3.65
2019-05-23T12:02:34.068Z,4.97
2019-05-23T12:05:06.373Z,5.50
2019-05-23T12:07:36.574Z,5.55
2019-05-23T12:10:07.712Z,4.65
2019-05-23T12:12:38.017Z,4.92
2019-05-23T12:15:13.517Z,5.10
2019-05-23T12:17:44.160Z,4.25
2019-05-23T12:20:15.085Z,6.42
2019-05-23T12:22:45.194Z,6.12
2019-05-23T12:25:23.012Z,6.00
2019-05-23T12:27:49.242Z,7.08
2019-05-23T12:30:19.306Z,15.53
2019-05-23T12:32:49.635Z,6.58
2019-05-23T12:35:19.255Z,6.62
2019-05-23T12:37:48.905Z,6.62
2019-05-23T12:40:19.304Z,6.60
2019-05-23T12:42:48.938Z,6.90
2019-05-23T12:45:18.991Z,7.42
2019-05-23T12:47:54.408Z,6.87
2019-05-23T12:50:31.196Z,6.90
2019-05-23T12:53:01.162Z,7.22
2019-05-23T12:55:30.822Z,6.55
2019-05-23T12:58:00.507Z,5.85
2019-05-23T13:00:35.172Z,6.62
2019-05-23T13:03:06.788Z,6.95
2019-05-23T13:05:36.623Z,6.42
2019-05-23T13:08:06.497Z,6.53
2019-05-23T13:10:36.937Z,7.37
2019-05-23T13:13:06.817Z,6.80
2019-05-23T13:15:36.370Z,7.42
2019-05-23T13:18:06.409Z,6.78
2019-05-23T13:20:37.709Z,6.42
2019-05-23T13:23:08.163Z,7.05
2019-05-23T13:25:38.859Z,6.92
2019-05-23T13:28:08.456Z,6.85
2019-05-23T13:30:38.175Z,7.95
2019-05-23T13:33:08.363Z,8.40
2019-05-23T13:35:38.295Z,6.33
2019-05-23T13:38:08.373Z,7.25
2019-05-23T13:40:37.945Z,7.24
2019-05-23T13:43:09.092Z,7.28
2019-05-23T13:45:39.122Z,7.33
2019-05-23T13:48:09.211Z,6.72
2019-05-23T13:50:39.964Z,5.90
2019-05-23T13:53:10.797Z,6.35
2019-05-23T13:55:40.679Z,6.00
2019-05-23T13:58:10.585Z,6.58
2019-05-23T14:00:40.414Z,5.55
2019-05-23T14:03:11.308Z,5.85
2019-05-23T14:05:41.059Z,5.83
2019-05-23T14:08:13.137Z,6.25
2019-05-23T14:10:42.431Z,5.90
2019-05-23T14:13:11.982Z,5.40
2019-05-23T14:15:43.542Z,4.58
2019-05-23T14:18:14.920Z,5.10
2019-05-23T14:20:44.627Z,5.00
2019-05-23T14:23:24.578Z,4.53
2019-05-23T14:25:55.058Z,4.50
2019-05-23T14:28:24.620Z,5.08
2019-05-23T14:31:08.334Z,5.20
2019-05-23T14:33:48.028Z,5.03
2019-05-23T14:36:22.816Z,4.62
2019-05-23T14:38:54.048Z,5.53
2019-05-23T14:41:24.275Z,4.92
2019-05-23T14:43:54.308Z,4.90
2019-05-23T14:46:25.970Z,3.92
2019-05-23T14:49:03.148Z,4.08
2019-05-23T14:51:40.927Z,3.77
2019-05-23T14:54:28.486Z,4.27
2019-05-23T14:56:58.086Z,3.45
2019-05-23T14:59:28.458Z,2.98
2019-05-23T15:01:58.600Z,3.95
2019-05-23T15:04:29.135Z,2.75
2019-05-23T15:06:58.767Z,2.80
2019-05-23T15:09:28.412Z,2.90
2019-05-23T15:11:58.466Z,3.17
2019-05-23T15:14:28.117Z,2.90
2019-05-23T15:16:57.751Z,2.60
2019-05-23T15:19:40.496Z,2.60
2019-05-23T15:21:58.930Z,1.95
2019-05-23T15:24:29.793Z,1.95
2019-05-23T15:26:59.484Z,2.25
2019-05-23T15:29:29.591Z,2.90
2019-05-23T15:32:02.675Z,2.47
2019-05-23T15:34:30.549Z,2.15
2019-05-23T15:37:00.182Z,1.87
2019-05-23T15:39:30.206Z,1.95
2019-05-23T15:41:59.766Z,1.50
2019-05-23T15:44:30.516Z,1.60
2019-05-23T15:47:00.549Z,1.65
2019-05-23T15:49:30.260Z,1.80
2019-05-23T15:52:02.421Z,1.95
2019-05-23T15:54:43.039Z,1.60
2019-05-23T15:57:30.185Z,1.80
2019-05-23T16:00:02.173Z,1.60
2019-05-23T16:02:34.005Z,2.30
2019-05-23T16:05:05.602Z,1.98
2019-05-23T16:07:35.764Z,1.45
2019-05-23T16:10:08.040Z,1.60
2019-05-23T16:12:38.041Z,4.67
2019-05-23T16:15:08.284Z,2.07
2019-05-23T16:17:38.020Z,1.60
2019-05-23T16:20:08.704Z,1.73
2019-05-23T16:22:38.662Z,1.80
2019-05-23T16:25:08.599Z,1.90
2019-05-23T16:27:38.809Z,2.20
2019-05-23T16:30:09.325Z,1.57
2019-05-23T16:32:39.139Z,1.98
2019-05-23T16:35:09.009Z,1.90
2019-05-23T16:37:38.565Z,1.67
2019-05-23T16:40:08.926Z,1.43
2019-05-23T16:42:38.479Z,2.03
2019-05-23T16:45:09.907Z,2.57
2019-05-23T16:47:39.552Z,2.55
2019-05-23T16:50:09.544Z,1.80
2019-05-23T16:52:39.734Z,1.80
2019-05-23T16:55:28.188Z,1.60
2019-05-23T16:57:59.757Z,1.57
2019-05-23T17:00:47.480Z,1.60
2019-05-23T17:03:18.759Z,1.53
2019-05-23T17:05:50.264Z,2.10
2019-05-23T17:08:37.609Z,1.70
2019-05-23T17:11:09.052Z,1.80
2019-05-23T17:13:40.384Z,1.73
2019-05-23T17:16:26.712Z,2.00
2019-05-23T17:18:58.094Z,2.30
2019-05-23T17:21:27.759Z,1.70
2019-05-23T17:24:02.009Z,1.83
2019-05-23T17:26:49.380Z,1.60
2019-05-23T17:29:20.919Z,2.00
2019-05-23T17:31:52.136Z,1.80
2019-05-23T17:34:22.042Z,2.10
2019-05-23T17:36:51.832Z,1.70
2019-05-23T17:39:22.057Z,1.67
2019-05-23T17:41:52.078Z,2.80
2019-05-23T17:44:22.958Z,1.90
2019-05-23T17:46:52.510Z,2.20
2019-05-23T17:49:22.312Z,1.97
2019-05-23T17:51:51.877Z,1.90
2019-05-23T17:54:21.897Z,2.00
2019-05-23T17:56:51.468Z,1.93
2019-05-23T17:59:21.094Z,2.10
2019-05-23T18:01:52.020Z,2.20
2019-05-23T18:04:21.696Z,6.30
2019-05-23T18:06:52.661Z,2.10
2019-05-23T18:09:22.357Z,1.90
2019-05-23T18:11:55.469Z,1.80
2019-05-23T18:14:24.320Z,2.13
2019-05-23T18:16:54.217Z,1.80
2019-05-23T18:19:24.076Z,2.00
2019-05-23T18:21:54.179Z,1.80
2019-05-23T18:24:23.969Z,2.13
2019-05-23T18:26:54.088Z,2.23
2019-05-23T18:29:23.930Z,1.80
2019-05-23T18:31:53.474Z,2.63
2019-05-23T18:34:23.632Z,3.47
2019-05-23T18:36:54.129Z,2.20
2019-05-23T18:39:25.143Z,1.80
2019-05-23T18:41:54.961Z,1.70
2019-05-23T18:44:25.319Z,1.70
2019-05-23T18:46:56.586Z,1.77
2019-05-23T18:49:26.958Z,1.83
2019-05-23T18:51:56.729Z,1.80
2019-05-23T18:54:26.386Z,1.60
2019-05-23T18:56:56.033Z,2.00
2019-05-23T18:59:25.920Z,1.67
2019-05-23T19:01:56.401Z,2.10
2019-05-23T19:04:26.342Z,1.80
2019-05-23T19:06:56.942Z,2.03
2019-05-23T19:09:28.216Z,1.93
2019-05-23T19:11:58.848Z,2.03
2019-05-23T19:14:28.407Z,1.73
2019-05-23T19:16:58.216Z,1.90
2019-05-23T19:19:27.923Z,2.30
2019-05-23T19:21:57.645Z,5.37
2019-05-23T19:24:27.482Z,11.87
2019-05-23T19:26:58.053Z,4.13
2019-05-23T19:29:28.011Z,2.47
2019-05-23T19:31:57.636Z,2.60
2019-05-23T19:34:27.950Z,2.90
2019-05-23T19:36:57.670Z,2.63
2019-05-23T19:39:27.982Z,2.43
2019-05-23T19:41:57.511Z,7.60
2019-05-23T19:44:27.301Z,3.73
2019-05-23T19:46:56.863Z,2.73
2019-05-23T19:49:27.537Z,2.40
2019-05-23T19:51:57.295Z,2.10
2019-05-23T19:54:28.480Z,2.50
2019-05-23T19:56:58.615Z,2.50
2019-05-23T19:59:28.725Z,2.90
2019-05-23T20:01:58.138Z,2.70
2019-05-23T20:04:31.457Z,3.50
2019-05-23T20:07:01.672Z,4.13
2019-05-23T20:09:31.998Z,4.50
2019-05-23T20:12:02.777Z,4.40
2019-05-23T20:14:32.330Z,4.33
2019-05-23T20:17:02.422Z,4.57
2019-05-23T20:19:32.057Z,4.83
2019-05-23T20:22:01.734Z,6.00
2019-05-23T20:24:31.293Z,4.73
2019-05-23T20:27:01.063Z,4.47
2019-05-23T20:29:30.606Z,4.57
2019-05-23T20:32:00.515Z,4.40
2019-05-23T20:34:30.539Z,4.43
2019-05-23T20:37:00.100Z,4.20
2019-05-23T20:39:30.831Z,4.20
2019-05-23T20:42:10.957Z,4.50
2019-05-23T20:44:32.007Z,39.60
2019-05-23T20:47:01.601Z,22.73
2019-05-23T20:49:31.899Z,10.17
2019-05-23T20:52:02.011Z,6.40
2019-05-23T20:54:33.678Z,4.20
2019-05-23T20:57:03.276Z,3.80
2019-05-23T20:59:32.908Z,3.90
2019-05-23T21:02:03.082Z,3.47
2019-05-23T21:04:32.703Z,3.93
2019-05-23T21:07:02.290Z,4.30
2019-05-23T21:09:32.055Z,3.60
2019-05-23T21:12:01.704Z,3.90
2019-05-23T21:14:31.617Z,3.53
2019-05-23T21:17:01.282Z,3.50
2019-05-23T21:19:30.886Z,3.90
2019-05-23T21:22:00.725Z,3.43
2019-05-23T21:24:32.048Z,13.63
2019-05-23T21:27:02.021Z,5.73
2019-05-23T21:29:31.619Z,4.80
2019-05-23T21:32:01.370Z,3.70
2019-05-23T21:34:31.082Z,3.27
2019-05-23T21:37:00.699Z,3.43
2019-05-23T21:39:30.261Z,3.60
2019-05-23T21:42:00.596Z,3.53
2019-05-23T21:44:30.186Z,3.50
2019-05-23T21:46:59.822Z,3.50
2019-05-23T21:49:29.653Z,3.20
2019-05-23T21:51:59.571Z,2.87
2019-05-23T21:54:29.132Z,3.17
2019-05-23T21:56:58.699Z,3.40
2019-05-23T21:59:28.373Z,3.23
2019-05-23T22:02:16.735Z,3.30
2019-05-23T22:04:48.128Z,2.93
2019-05-23T22:07:17.756Z,2.80
2019-05-23T22:09:47.688Z,2.90
2019-05-23T22:12:18.062Z,2.87
2019-05-23T22:14:48.534Z,2.73
2019-05-23T22:17:19.735Z,2.70
2019-05-23T22:19:49.286Z,2.93
2019-05-23T22:22:19.362Z,2.70
2019-05-23T22:24:48.968Z,2.57
2019-05-23T22:27:18.862Z,2.80
2019-05-23T22:29:48.532Z,2.63
2019-05-23T22:32:20.243Z,2.80
2019-05-23T22:34:51.972Z,2.67
2019-05-23T22:37:22.465Z,2.93
2019-05-23T22:39:52.046Z,2.33
2019-05-23T22:42:21.676Z,2.73
2019-05-23T22:44:51.311Z,2.50
2019-05-23T22:47:20.982Z,2.47
2019-05-23T22:49:50.765Z,2.50
2019-05-23T22:52:20.563Z,2.77
2019-05-23T22:54:50.135Z,2.27
2019-05-23T22:57:19.876Z,2.50
2019-05-23T22:59:49.515Z,2.30
2019-05-23T23:02:19.260Z,2.43
2019-05-23T23:04:49.253Z,2.30
2019-05-23T23:07:20.791Z,2.30
2019-05-23T23:09:50.420Z,2.57
2019-05-23T23:12:20.099Z,2.43
2019-05-23T23:14:49.660Z,2.30
2019-05-23T23:17:20.133Z,2.50
2019-05-23T23:19:49.728Z,2.10
2019-05-23T23:22:19.413Z,2.60
2019-05-23T23:24:49.037Z,2.30
2019-05-23T23:27:20.260Z,2.03
2019-05-23T23:29:51.628Z,2.63
2019-05-23T23:32:21.370Z,2.53
2019-05-23T23:34:51.057Z,2.67
2019-05-23T23:37:20.946Z,2.43
2019-05-23T23:39:50.645Z,2.20
2019-05-23T23:42:20.250Z,2.30
2019-05-23T23:44:49.197Z,2.67
2019-05-23T23:47:36.220Z,2.10
2019-05-23T23:50:25.531Z,2.30
2019-05-23T23:53:12.901Z,2.27
2019-05-23T23:56:01.752Z,2.30
2019-05-23T23:58:31.163Z,2.40
